TimeCDT,TemperatureF,Dew PointF,Humidity,Sea Level PressureIn,VisibilityMPH,Wind Direction,Wind SpeedMPH,Gust SpeedMPH,PrecipitationIn,Events,Conditions,WindDirDegrees,DateUTC
12:15 AM,81.5,68.2,64,29.92,10.0,SSE,9.2,-,N/A,,Clear,150,2013-07-21 05:15:00
12:35 AM,80.8,68.0,65,29.91,10.0,SSE,9.2,-,N/A,,Clear,150,2013-07-21 05:35:00
12:55 AM,81.0,67.8,64,29.91,10.0,SSE,10.4,-,N/A,,Clear,160,2013-07-21 05:55:00
1:15 AM,81.0,67.6,64,29.91,10.0,South,9.2,-,N/A,,Clear,170,2013-07-21 06:15:00
1:35 AM,80.6,67.6,65,29.91,10.0,SSE,8.1,-,N/A,,Clear,160,2013-07-21 06:35:00
1:55 AM,80.6,68.0,65,29.91,10.0,SSE,6.9,-,N/A,,Clear,160,2013-07-21 06:55:00
2:15 AM,80.2,67.6,65,29.91,10.0,SSE,6.9,-,N/A,,Clear,160,2013-07-21 07:15:00
2:35 AM,79.7,67.8,67,29.91,10.0,SSE,6.9,-,N/A,,Clear,160,2013-07-21 07:35:00
2:55 AM,79.0,68.0,69,29.90,10.0,SSE,6.9,-,N/A,,Clear,160,2013-07-21 07:55:00
3:15 AM,78.3,68.2,71,29.90,10.0,South,6.9,-,N/A,,Clear,170,2013-07-21 08:15:00
3:35 AM,77.9,68.0,71,29.91,10.0,South,5.8,-,N/A,,Clear,170,2013-07-21 08:35:00
3:55 AM,77.4,68.0,73,29.90,10.0,South,6.9,-,N/A,,Clear,180,2013-07-21 08:55:00
4:15 AM,77.0,67.6,73,29.90,10.0,South,8.1,-,N/A,,Clear,190,2013-07-21 09:15:00
4:35 AM,77.0,67.5,72,29.90,10.0,South,8.1,-,N/A,,Clear,190,2013-07-21 09:35:00
4:55 AM,77.4,67.1,71,29.90,10.0,South,10.4,-,0.01,,Clear,190,2013-07-21 09:55:00
5:15 AM,77.4,67.1,71,29.90,10.0,SSW,10.4,-,N/A,,Clear,200,2013-07-21 10:15:00
5:35 AM,77.0,67.1,71,29.91,10.0,SSW,6.9,-,N/A,,Clear,200,2013-07-21 10:35:00
5:55 AM,76.3,67.3,74,29.91,10.0,South,6.9,-,N/A,,Clear,190,2013-07-21 10:55:00
6:15 AM,75.9,67.1,74,29.91,10.0,South,8.1,-,N/A,,Clear,190,2013-07-21 11:15:00
6:35 AM,76.1,67.1,74,29.92,10.0,South,8.1,-,N/A,,Clear,190,2013-07-21 11:35:00
6:55 AM,76.5,67.1,73,29.92,10.0,SSW,9.2,-,N/A,,Clear,210,2013-07-21 11:55:00
7:15 AM,77.2,67.1,71,29.93,10.0,SSW,9.2,-,N/A,,Clear,210,2013-07-21 12:15:00
7:35 AM,78.1,66.9,68,29.93,10.0,SW,9.2,-,N/A,,Clear,220,2013-07-21 12:35:00
7:55 AM,79.0,66.9,66,29.93,10.0,SW,9.2,18.4,N/A,,Clear,220,2013-07-21 12:55:00
8:15 AM,79.9,67.8,66,29.94,10.0,SW,8.1,-,N/A,,Clear,230,2013-07-21 13:15:00
8:35 AM,81.3,68.2,64,29.94,10.0,SW,9.2,-,N/A,,Clear,230,2013-07-21 13:35:00
8:55 AM,82.6,68.2,62,29.94,10.0,SW,11.5,16.1,N/A,,Clear,230,2013-07-21 13:55:00
9:15 AM,83.7,68.5,60,29.95,10.0,WSW,11.5,-,N/A,,Clear,240,2013-07-21 14:15:00
9:35 AM,84.7,68.4,58,29.95,10.0,WSW,10.4,-,N/A,,Clear,250,2013-07-21 14:35:00
9:55 AM,86.0,67.5,54,29.95,10.0,WSW,13.8,19.6,N/A,,Clear,240,2013-07-21 14:55:00
10:15 AM,86.9,67.5,52,29.95,10.0,West,12.7,-,N/A,,Clear,260,2013-07-21 15:15:00
10:35 AM,87.8,67.5,51,29.95,10.0,WSW,12.7,-,N/A,,Clear,250,2013-07-21 15:35:00
10:55 AM,88.0,67.3,50,29.95,10.0,WSW,8.1,-,N/A,,Clear,240,2013-07-21 15:55:00
11:15 AM,89.4,68.2,49,29.95,10.0,WSW,9.2,-,N/A,,Clear,250,2013-07-21 16:15:00
11:35 AM,89.6,67.5,48,29.95,10.0,SW,8.1,-,N/A,,Clear,230,2013-07-21 16:35:00
11:55 AM,90.5,67.1,46,29.95,10.0,WSW,9.2,-,N/A,,Clear,240,2013-07-21 16:55:00
12:15 PM,91.2,66.9,45,29.94,10.0,South,8.1,-,N/A,,Scattered Clouds,190,2013-07-21 17:15:00
12:56 PM,91.4,66.2,43,29.93,10.0,SW,8.1,-,N/A,,Scattered Clouds,220,2013-07-21 17:56:00
1:15 PM,93.4,64.4,38,29.93,10.0,SW,6.9,-,N/A,,Scattered Clouds,220,2013-07-21 18:15:00
1:35 PM,93.2,63.1,37,29.92,10.0,South,5.8,-,N/A,,Mostly Cloudy,170,2013-07-21 18:35:00
1:55 PM,93.7,63.5,37,29.91,10.0,South,5.8,-,N/A,,Scattered Clouds,170,2013-07-21 18:55:00
2:15 PM,94.3,63.3,36,29.91,10.0,SSW,9.2,-,N/A,,Scattered Clouds,210,2013-07-21 19:15:00
2:35 PM,94.6,63.0,35,29.91,10.0,SSW,9.2,-,N/A,,Scattered Clouds,210,2013-07-21 19:35:00
2:55 PM,92.3,62.1,36,29.90,10.0,South,8.1,-,N/A,,Overcast,180,2013-07-21 19:55:00
3:15 PM,95.2,61.5,33,29.89,10.0,SW,4.6,-,N/A,,Overcast,220,2013-07-21 20:15:00
3:35 PM,92.7,61.3,35,29.89,10.0,South,8.1,-,N/A,,Mostly Cloudy,170,2013-07-21 20:35:00
3:55 PM,94.8,62.1,34,29.89,10.0,SSE,9.2,-,N/A,,Scattered Clouds,160,2013-07-21 20:55:00
4:15 PM,94.6,61.3,33,29.88,10.0,South,9.2,16.1,N/A,,Mostly Cloudy,190,2013-07-21 21:15:00
4:35 PM,94.5,61.0,33,29.88,10.0,SW,3.5,17.3,N/A,,Scattered Clouds,220,2013-07-21 21:35:00
4:55 PM,95.4,61.5,32,29.87,10.0,SSE,10.4,-,N/A,,Scattered Clouds,160,2013-07-21 21:55:00
5:15 PM,95.9,61.7,32,29.87,10.0,South,8.1,23.0,N/A,,Mostly Cloudy,180,2013-07-21 22:15:00
5:35 PM,95.9,59.5,30,29.87,10.0,South,10.4,-,N/A,,Scattered Clouds,190,2013-07-21 22:35:00
5:55 PM,96.1,59.4,29,29.86,10.0,South,8.1,-,N/A,,Clear,190,2013-07-21 22:55:00
6:15 PM,96.1,59.7,30,29.85,10.0,SW,8.1,-,N/A,,Clear,220,2013-07-21 23:15:00
6:35 PM,95.9,59.2,29,29.84,10.0,SSW,8.1,-,N/A,,Clear,200,2013-07-21 23:35:00
6:55 PM,95.4,59.0,30,29.84,10.0,SSW,6.9,-,N/A,,Clear,200,2013-07-21 23:55:00
7:15 PM,94.5,60.4,32,29.85,10.0,South,6.9,-,N/A,,Clear,190,2013-07-22 00:15:00
7:35 PM,94.1,61.2,33,29.85,10.0,South,6.9,-,N/A,,Clear,180,2013-07-22 00:35:00
7:55 PM,93.6,61.5,34,29.85,10.0,SSE,6.9,-,N/A,,Clear,160,2013-07-22 00:55:00
8:15 PM,92.3,62.4,37,29.86,10.0,SSE,5.8,-,N/A,,Clear,160,2013-07-22 01:15:00
8:35 PM,90.7,63.5,40,29.87,10.0,SSE,5.8,-,N/A,,Clear,160,2013-07-22 01:35:00
8:55 PM,89.6,63.5,42,29.87,10.0,SSE,6.9,-,N/A,,Clear,160,2013-07-22 01:55:00
9:15 PM,88.2,64.4,45,29.88,10.0,SSE,5.8,-,N/A,,Clear,150,2013-07-22 02:15:00
9:35 PM,87.4,64.4,46,29.88,10.0,SE,6.9,-,N/A,,Mostly Cloudy,140,2013-07-22 02:35:00
9:55 PM,86.9,65.3,48,29.89,10.0,SSE,5.8,-,N/A,,Overcast,160,2013-07-22 02:55:00
10:15 PM,86.0,65.7,50,29.90,10.0,SSE,9.2,-,N/A,,Scattered Clouds,160,2013-07-22 03:15:00
10:35 PM,86.0,66.4,52,29.91,10.0,South,10.4,17.3,N/A,,Clear,180,2013-07-22 03:35:00
10:55 PM,84.9,67.1,55,29.91,10.0,South,8.1,-,N/A,,Clear,180,2013-07-22 03:55:00
11:15 PM,83.7,67.8,59,29.91,10.0,South,9.2,-,N/A,,Clear,180,2013-07-22 04:15:00
11:35 PM,83.3,67.3,58,29.92,10.0,South,8.1,-,N/A,,Clear,180,2013-07-22 04:35:00
11:55 PM,82.2,67.6,61,29.92,10.0,South,8.1,-,N/A,,Clear,190,2013-07-22 04:55:00